Vidin, Bulgaria
Current Conditions -  °F | °C
As of 3:00 AM on Thursday 23 Oct 2014 (Local Time) from LRCV Reporting Station
Light Rain Light Rain  
Wind Chill: 40°   Ceiling: 7500
Heat Index: 45°   Visibility: 6mi
Dew Point: 41°   Wind: 9mph
Humidity: 87%   Direction: 260°W
Pressure: 29.53"   Gusts: NA
Location:  44.01°N, 22.87°E
Report Text: LRCV 230000Z 26008KT 9999 -RA FEW032 BKN075 07/05 Q1000
Loading
Personal Weather Stations






























Interactive Weather Map
Tropical Storm Tracking
New forecast layout! Learn more

10-Day Weather Forecast

Advertisements
Track Severe Weather on mobile